Terminal Aerodrome Forecast
Issued by NWS

Home | Current Version | Previous Version | Graphics & Text | Print | Product List | Glossary On
Versions: 1 2 3 4 5 6 7 8 9 10 11 12 13 14
000
FTUS45 KGGW 180525
TAFSDY
TAF
KSDY 180525Z 1806/1906 24015KT P6SM FEW150 WS020/28050KT
     FM180800 28025G45KT P6SM FEW250
     FM181600 29014KT P6SM FEW150
     FM190200 19004KT P6SM FEW150=

USA.gov is the U.S. government's official web portal to all federal, state and local government web resources and services.